Nong Khai, Thailand
Current Conditions -  °F | °C
As of 7:00 PM on Saturday 25 Oct 2014 (Local Time) from VLVT Reporting Station
Haze Haze  
Wind Chill: 84°   Ceiling: Unl
Heat Index: 90°   Visibility: 2.5mi
Dew Point: 72°   Wind: 2mph
Humidity: 66%   Direction: 220°SW
Pressure: 29.83"   Gusts: NA
Location:  17.88°N, 102.74°E
Report Text: VLVT 251200Z 22002KT 4000 BR NSC 29/22 Q1010 NOSIG
Loading
Personal Weather Stations






























Interactive Weather Map
Tropical Storm Tracking
New forecast layout! Learn more

10-Day Weather Forecast

Advertisements
Track Severe Weather on mobile